• Join FlightAware (Why Join?)
  • Login
  • US Flag 
03:22AM EDT


 

Airport Tracker/Info


-or-


 

Live Flight TrackerFlight Track Log ✈ SAS13 ✈ 24-Apr-2013 ✈ ESPA / LLA - ESSA / ARN

Flight Track Log - Related Links

Times and Time Zones

All times are in EDT time to prevent confusion due to time zone crossing. See the SAS13 flight status page for this flight to view local times or setup timezone preferences in your user account.

Time Position Orientation Groundspeed Altitude Reporting Facility
EDT Latitude Longitude Course Direction KTS MPH feet Rate Location/Type
11:11AM 65.2257 21.8451 200° South  Level Estimated
11:12AM 65.1196 21.7542 200° South  Level Estimated
11:13AM 65.0134 21.6641 200° South  Level Estimated
11:14AM 64.9072 21.5747 200° South  Level Estimated
11:15AM 64.8009 21.4860 200° South  Level Estimated
11:16AM 64.6946 21.3980 199° South  Level Estimated
11:17AM 64.5882 21.3107 199° South  Level Estimated
11:18AM 64.4817 21.2241 199° South  Level Estimated
11:19AM 64.3752 21.1381 199° South  Level Estimated
11:20AM 64.2687 21.0529 199° South  Level Estimated
11:21AM 64.1621 20.9682 199° South  Level Estimated
11:22AM 64.0555 20.8842 199° South  Level Estimated
11:23AM 63.9488 20.8009 199° South  Level Estimated
11:24AM 63.8420 20.7182 199° South  Level Estimated
11:25AM 63.7353 20.6361 199° South  Level Estimated
11:26AM 63.6284 20.5546 199° South  Level Estimated
11:27AM 63.5216 20.4737 199° South  Level Estimated
11:28AM 63.4146 20.3935 199° South  Level Estimated
11:29AM 63.3077 20.3138 199° South  Level Estimated
11:30AM 63.2007 20.2348 198° South  Level Estimated
11:31AM 63.0936 20.1563 198° South  Level Estimated
11:32AM 62.9865 20.0784 198° South  Level Estimated
11:33AM 62.8794 20.0010 198° South  Level Estimated
11:34AM 62.7722 19.9242 198° South  Level Estimated
11:35AM 62.6650 19.8480 198° South  Level Estimated
11:36AM 62.5577 19.7723 198° South  Level Estimated
11:37AM 62.4504 19.6972 198° South  Level Estimated
11:38AM 62.3431 19.6226 198° South  Level Estimated
11:39AM 62.2357 19.5486 198° South  Level Estimated
11:40AM 62.1283 19.4750 198° South  Level Estimated
11:41AM 62.0208 19.4020 198° South  Level Estimated
11:42AM 61.9133 19.3295 198° South  Level Estimated
11:43AM 61.8058 19.2575 198° South  Level Estimated
11:44AM 61.6982 19.1860 197° South  Level Estimated
11:45AM 61.5906 19.1150 197° South  Level Estimated
11:46AM 61.4830 19.0445 197° South  Level Estimated
11:47AM 61.3753 18.9745 197° South  Level Estimated
11:48AM 61.2676 18.9050 197° South  Level Estimated
11:49AM 61.1598 18.8359 197° South  Level Estimated
11:50AM 61.0520 18.7673 197° South  Level Estimated
11:51AM 60.9442 18.6992 197° South  Level Estimated
11:52AM 60.8363 18.6315 197° South  Level Estimated
11:53AM 60.7285 18.5643 197° South  Level Estimated
11:54AM 60.6205 18.4975 197° South  Level Estimated
11:55AM 60.5126 18.4312 197° South  Level Estimated
11:56AM 60.4046 18.3654 197° South  Level Estimated
11:57AM 60.2966 18.2999 197° South  Level Estimated
11:58AM 60.1885 18.2349 197° South  Level Estimated
11:59AM 60.0804 18.1703 197° South  Level Estimated
12:00PM 59.9723 18.1062 197° South  Level Estimated
12:01PM 59.8641 18.0424 196° South  Level Estimated
12:02PM 59.7560 17.9791 196° South  Level Estimated
12:03PM 59.6519 17.9186 196° South  Level Estimated
12:04PM 59.6519 17.9186 North  Level Estimated
12:05PM 59.6519 17.9186 North  Level Estimated
12:06PM 59.6519 17.9186 North  Level Estimated
12:07PM 59.6519 17.9186 North  Level Estimated
12:08PM 59.6519 17.9186 North  Level Estimated
12:09PM 59.6519 17.9186 North  Level Estimated
12:10PM 59.6519 17.9186 North  Level Estimated
12:11PM 59.6519 17.9186 North  Level Estimated
12:12PM 59.6519 17.9186 North  Level Estimated
12:13PM 59.6519 17.9186 North  Level Estimated
12:14PM 59.6519 17.9186 North  Level Estimated
12:15PM 59.6519 17.9186 North  Level Estimated
12:16PM 59.6519 17.9186 North  Level Estimated
12:17PM 59.6519 17.9186 North  Level Estimated